createdAt,value
2023-03-21T00:00:05.862Z,71
2023-03-21T00:01:01.109Z,71
2023-03-21T00:02:01.268Z,71
2023-03-21T00:03:01.101Z,70
2023-03-21T00:04:02.663Z,70
2023-03-21T00:05:15.147Z,70
2023-03-21T00:06:01.303Z,70
2023-03-21T00:07:01.118Z,70
2023-03-21T00:08:02.566Z,70
2023-03-21T00:09:01.122Z,70
2023-03-21T00:10:12.371Z,70
2023-03-21T00:11:01.172Z,70
2023-03-21T00:12:01.363Z,70
2023-03-21T00:13:01.164Z,70
2023-03-21T00:14:01.278Z,70
2023-03-21T00:15:05.594Z,71
2023-03-21T00:16:04.731Z,71
2023-03-21T00:17:01.196Z,71
2023-03-21T00:18:02.608Z,71
2023-03-21T00:19:01.206Z,71
2023-03-21T00:20:05.013Z,71
2023-03-21T00:21:25.679Z,71
2023-03-21T00:22:07.345Z,71
2023-03-21T00:23:00.208Z,71
2023-03-21T00:24:00.379Z,71
2023-03-21T00:25:04.743Z,71
2023-03-21T00:26:00.379Z,71
2023-03-21T00:27:21.929Z,71
2023-03-21T00:30:18.914Z,71
2023-03-21T00:31:00.303Z,71
2023-03-21T00:32:00.426Z,71
2023-03-21T00:33:05.890Z,71
2023-03-21T00:34:01.541Z,71
2023-03-21T00:35:23.330Z,71
2023-03-21T00:36:05.152Z,71
2023-03-21T00:37:00.290Z,71
2023-03-21T00:38:00.484Z,71
2023-03-21T00:39:00.317Z,71
2023-03-21T00:40:07.006Z,71
2023-03-21T00:41:04.619Z,71
2023-03-21T00:42:00.529Z,71
2023-03-21T00:43:00.320Z,71
2023-03-21T00:44:00.434Z,71
2023-03-21T00:45:03.772Z,71
2023-03-21T00:46:00.482Z,71
2023-03-21T00:47:07.052Z,71
2023-03-21T00:48:00.764Z,71
2023-03-21T00:49:00.362Z,71
2023-03-21T00:50:05.777Z,71
2023-03-21T00:51:00.387Z,71
2023-03-21T00:52:14.807Z,71
2023-03-21T00:53:00.409Z,71
2023-03-21T00:54:00.574Z,71
2023-03-21T00:55:03.937Z,71
2023-03-21T00:56:00.560Z,71
2023-03-21T00:57:00.420Z,71
2023-03-21T00:58:02.351Z,71
2023-03-21T00:59:00.424Z,71
2023-03-21T01:00:05.225Z,71
2023-03-21T01:01:00.532Z,71
2023-03-21T01:02:00.576Z,71
2023-03-21T01:03:06.520Z,71
2023-03-21T01:04:00.628Z,71
2023-03-21T01:05:04.025Z,72
2023-03-21T01:06:00.671Z,72
2023-03-21T01:07:00.484Z,72
2023-03-21T01:08:01.812Z,73
2023-03-21T01:09:00.521Z,73
2023-03-21T01:10:05.247Z,73
2023-03-21T01:11:00.520Z,73
2023-03-21T01:12:00.685Z,73
2023-03-21T01:13:00.532Z,72
2023-03-21T01:14:18.752Z,72
2023-03-21T01:15:04.976Z,72
2023-03-21T01:16:00.872Z,72
2023-03-21T01:17:00.541Z,72
2023-03-21T01:18:00.718Z,72
2023-03-21T01:19:01.157Z,72
2023-03-21T01:20:05.270Z,72
2023-03-21T01:21:00.584Z,72
2023-03-21T01:22:00.753Z,72
2023-03-21T01:23:00.579Z,72
2023-03-21T01:24:00.798Z,72
2023-03-21T01:25:21.045Z,72
2023-03-21T01:26:00.753Z,72
2023-03-21T01:27:00.640Z,72
2023-03-21T01:28:00.765Z,72
2023-03-21T01:29:00.620Z,72
2023-03-21T01:30:11.229Z,72
2023-03-21T01:31:00.626Z,72
2023-03-21T01:32:00.810Z,72
2023-03-21T01:33:00.669Z,72
2023-03-21T01:34:00.786Z,72
2023-03-21T01:35:04.192Z,72
2023-03-21T01:36:12.440Z,72
2023-03-21T01:37:00.748Z,72
2023-03-21T01:38:00.840Z,72
2023-03-21T01:39:00.693Z,72
2023-03-21T01:40:05.486Z,72
2023-03-21T01:41:00.691Z,72
2023-03-21T01:42:00.877Z,72
2023-03-21T01:43:00.685Z,72
2023-03-21T01:44:00.847Z,73
2023-03-21T01:45:05.928Z,73
2023-03-21T01:46:02.615Z,73
2023-03-21T01:47:10.375Z,73
2023-03-21T01:48:00.974Z,73
2023-03-21T01:49:00.747Z,73
2023-03-21T01:50:07.700Z,73
2023-03-21T01:51:00.756Z,73
2023-03-21T01:52:06.612Z,73
2023-03-21T01:53:00.751Z,72
2023-03-21T01:54:00.963Z,72
2023-03-21T01:55:05.307Z,72
2023-03-21T01:56:00.874Z,73
2023-03-21T01:57:00.808Z,73
2023-03-21T01:58:06.308Z,73
2023-03-21T01:59:00.795Z,73
2023-03-21T02:00:04.842Z,73
2023-03-21T02:01:00.882Z,73
2023-03-21T02:02:00.980Z,73
2023-03-21T02:03:11.532Z,73
2023-03-21T02:04:01.126Z,73
2023-03-21T02:05:05.337Z,73
2023-03-21T02:06:01.076Z,73
2023-03-21T02:07:00.911Z,73
2023-03-21T02:08:01.113Z,73
2023-03-21T02:09:00.930Z,73
2023-03-21T02:10:04.562Z,73
2023-03-21T02:11:00.973Z,73
2023-03-21T02:12:33.222Z,73
2023-03-21T02:13:00.954Z,73
2023-03-21T02:14:07.086Z,73
2023-03-21T02:15:05.404Z,73
2023-03-21T02:16:02.111Z,73
2023-03-21T02:17:01.015Z,73
2023-03-21T02:18:04.257Z,73
2023-03-21T02:19:00.968Z,73
2023-03-21T02:20:21.441Z,73
2023-03-21T02:21:01.006Z,73
2023-03-21T02:22:04.273Z,73
2023-03-21T02:23:00.978Z,73
2023-03-21T02:24:02.238Z,73
2023-03-21T02:25:13.216Z,73
2023-03-21T02:26:01.142Z,73
2023-03-21T02:27:04.354Z,73
2023-03-21T02:32:37.495Z,73
2023-03-21T02:33:01.060Z,73
2023-03-21T02:34:01.216Z,73
2023-03-21T02:35:04.553Z,73
2023-03-21T02:36:13.227Z,73
2023-03-21T02:37:01.078Z,73
2023-03-21T02:38:01.300Z,73
2023-03-21T02:39:01.109Z,73
2023-03-21T02:40:06.679Z,74
2023-03-21T02:41:03.363Z,74
2023-03-21T02:42:01.357Z,74
2023-03-21T02:43:01.473Z,74
2023-03-21T02:44:01.465Z,74
2023-03-21T02:45:04.674Z,74
2023-03-21T02:46:02.778Z,74
2023-03-21T02:47:06.071Z,74
2023-03-21T02:48:01.440Z,74
2023-03-21T02:49:01.215Z,73
2023-03-21T02:50:05.910Z,73
2023-03-21T02:51:00.205Z,73
2023-03-21T02:52:08.742Z,73
2023-03-21T02:53:00.189Z,73
2023-03-21T02:54:24.962Z,73
2023-03-21T02:55:03.682Z,73
2023-03-21T02:56:00.398Z,73
2023-03-21T02:57:00.234Z,74
2023-03-21T02:58:11.673Z,74
2023-03-21T02:59:00.227Z,74
2023-03-21T03:00:15.798Z,74
2023-03-21T03:01:00.250Z,74
2023-03-21T03:02:00.404Z,74
2023-03-21T03:03:09.237Z,74
2023-03-21T03:04:00.474Z,74
2023-03-21T03:05:11.502Z,74
2023-03-21T03:06:00.494Z,74
2023-03-21T03:07:00.290Z,74
2023-03-21T03:08:00.513Z,74
2023-03-21T03:09:02.856Z,74
2023-03-21T03:10:05.834Z,74
2023-03-21T03:11:00.334Z,74
2023-03-21T03:12:00.473Z,74
2023-03-21T03:13:00.339Z,74
2023-03-21T03:14:02.122Z,74
2023-03-21T03:15:04.462Z,74
2023-03-21T03:16:00.577Z,74
2023-03-21T03:17:00.370Z,74
2023-03-21T03:18:00.584Z,74
2023-03-21T03:19:00.389Z,74
2023-03-21T03:20:15.547Z,74
2023-03-21T03:21:00.411Z,74
2023-03-21T03:22:00.554Z,74
2023-03-21T03:23:00.394Z,74
2023-03-21T03:24:00.576Z,74
2023-03-21T03:25:17.786Z,74
2023-03-21T03:26:00.644Z,74
2023-03-21T03:27:00.458Z,74
2023-03-21T03:31:05.097Z,75
2023-03-21T03:31:09.219Z,75
2023-03-21T03:32:07.776Z,75
2023-03-21T03:33:00.490Z,75
2023-03-21T03:34:00.598Z,75
2023-03-21T03:35:05.577Z,75
2023-03-21T03:36:05.586Z,75
2023-03-21T03:37:00.552Z,74
2023-03-21T03:38:00.708Z,74
2023-03-21T03:39:00.497Z,74
2023-03-21T03:40:10.317Z,74
2023-03-21T03:41:00.524Z,74
2023-03-21T03:42:12.651Z,74
2023-03-21T03:43:00.540Z,74
2023-03-21T03:44:00.679Z,75
2023-03-21T03:45:05.209Z,75
2023-03-21T03:46:00.714Z,75
2023-03-21T03:47:00.539Z,75
2023-03-21T03:48:00.821Z,75
2023-03-21T03:49:00.548Z,75
2023-03-21T03:50:05.453Z,75
2023-03-21T03:51:00.595Z,75
2023-03-21T03:52:00.709Z,75
2023-03-21T03:53:04.794Z,75
2023-03-21T03:54:00.762Z,75
2023-03-21T03:55:04.172Z,75
2023-03-21T03:56:00.834Z,75
2023-03-21T03:57:00.609Z,75
2023-03-21T03:58:02.007Z,76
2023-03-21T03:59:00.603Z,76
2023-03-21T04:00:05.586Z,76
2023-03-21T04:01:00.627Z,76
2023-03-21T04:02:01.029Z,76
2023-03-21T04:03:00.750Z,76
2023-03-21T04:04:12.185Z,76
2023-03-21T04:05:05.127Z,76
2023-03-21T04:06:00.803Z,76
2023-03-21T04:07:00.669Z,76
2023-03-21T04:08:00.850Z,76
2023-03-21T04:09:03.457Z,76
2023-03-21T04:10:05.401Z,76
2023-03-21T04:11:00.701Z,76
2023-03-21T04:12:00.862Z,76
2023-03-21T04:13:00.697Z,76
2023-03-21T04:14:02.592Z,76
2023-03-21T04:15:10.863Z,76
2023-03-21T04:16:00.842Z,76
2023-03-21T04:17:00.842Z,76
2023-03-21T04:18:01.990Z,76
2023-03-21T04:19:00.728Z,76
2023-03-21T04:20:12.346Z,76
2023-03-21T04:21:00.786Z,76
2023-03-21T04:22:00.953Z,76
2023-03-21T04:23:00.818Z,76
2023-03-21T04:24:00.962Z,76
2023-03-21T04:25:04.295Z,76
2023-03-21T04:26:00.954Z,76
2023-03-21T04:27:00.857Z,76
2023-03-21T04:28:00.959Z,76
2023-03-21T04:29:00.838Z,76
2023-03-21T04:30:06.452Z,76
2023-03-21T04:31:06.784Z,76
2023-03-21T04:32:01.048Z,76
2023-03-21T04:33:00.857Z,76
2023-03-21T04:34:00.931Z,76
2023-03-21T04:35:04.449Z,76
2023-03-21T04:36:00.983Z,76
2023-03-21T04:37:00.852Z,76
2023-03-21T04:38:00.980Z,76
2023-03-21T04:39:01.005Z,76
2023-03-21T04:40:05.668Z,76
2023-03-21T04:41:00.889Z,76
2023-03-21T04:42:01.015Z,76
2023-03-21T04:43:00.888Z,76
2023-03-21T04:44:01.025Z,76
2023-03-21T04:45:04.541Z,76
2023-03-21T04:46:01.060Z,76
2023-03-21T04:47:00.956Z,76
2023-03-21T04:48:01.037Z,76
2023-03-21T04:49:00.965Z,76
2023-03-21T04:50:05.814Z,76
2023-03-21T04:51:00.962Z,76
2023-03-21T04:52:01.040Z,76
2023-03-21T04:53:00.972Z,76
2023-03-21T04:54:01.074Z,76
2023-03-21T04:55:04.500Z,76
2023-03-21T04:56:01.064Z,76
2023-03-21T04:57:00.980Z,76
2023-03-21T04:58:01.062Z,76
2023-03-21T04:59:00.982Z,76
2023-03-21T05:00:06.148Z,76
2023-03-21T05:01:01.045Z,76
2023-03-21T05:02:01.146Z,76
2023-03-21T05:03:01.057Z,76
2023-03-21T05:04:01.143Z,76
2023-03-21T05:05:05.617Z,76
2023-03-21T05:06:01.143Z,76
2023-03-21T05:07:01.057Z,76
2023-03-21T05:08:01.158Z,76
2023-03-21T05:09:01.071Z,76
2023-03-21T05:10:05.783Z,76
2023-03-21T05:11:01.088Z,76
2023-03-21T05:12:01.228Z,76
2023-03-21T05:13:01.140Z,76
2023-03-21T05:14:01.203Z,76
2023-03-21T05:15:05.582Z,76
2023-03-21T05:16:01.234Z,76
2023-03-21T05:17:01.223Z,76
2023-03-21T05:18:01.248Z,76
2023-03-21T05:19:01.142Z,76
2023-03-21T05:20:06.093Z,76
2023-03-21T05:21:01.184Z,76
2023-03-21T05:22:01.311Z,76
2023-03-21T05:23:01.174Z,76
2023-03-21T05:24:01.274Z,76
2023-03-21T05:25:06.756Z,76
2023-03-21T05:26:00.288Z,76
2023-03-21T05:27:01.628Z,76
2023-03-21T05:28:00.305Z,76
2023-03-21T05:29:00.217Z,76
2023-03-21T05:30:05.099Z,76
2023-03-21T05:31:00.307Z,76
2023-03-21T05:32:00.299Z,76
2023-03-21T05:33:00.251Z,76
2023-03-21T05:34:00.349Z,76
2023-03-21T05:35:04.736Z,76
2023-03-21T05:36:00.466Z,76
2023-03-21T05:37:00.312Z,76
2023-03-21T05:38:00.351Z,76
2023-03-21T05:39:00.286Z,76
2023-03-21T05:40:05.157Z,76
2023-03-21T05:41:00.341Z,77
2023-03-21T05:42:00.388Z,77
2023-03-21T05:43:00.320Z,77
2023-03-21T05:44:00.412Z,77
2023-03-21T05:45:04.797Z,77
2023-03-21T05:46:00.447Z,77
2023-03-21T05:47:00.373Z,77
2023-03-21T05:48:00.458Z,77
2023-03-21T05:49:00.389Z,77
2023-03-21T05:50:05.046Z,77
2023-03-21T05:51:00.383Z,77
2023-03-21T05:52:00.462Z,77
2023-03-21T05:53:00.378Z,77
2023-03-21T05:54:00.472Z,77
2023-03-21T05:55:04.990Z,77
2023-03-21T05:56:00.466Z,77
2023-03-21T05:57:00.432Z,77
2023-03-21T05:58:00.472Z,77
2023-03-21T05:59:00.416Z,76
2023-03-21T06:00:05.331Z,76
2023-03-21T06:01:00.410Z,76
2023-03-21T06:02:00.627Z,76
2023-03-21T06:03:00.832Z,76
2023-03-21T06:04:00.667Z,76
2023-03-21T06:05:05.010Z,76
2023-03-21T06:06:00.561Z,76
2023-03-21T06:07:00.620Z,76
2023-03-21T06:08:00.587Z,76
2023-03-21T06:09:00.491Z,76
2023-03-21T06:10:05.929Z,76
2023-03-21T06:11:00.624Z,76
2023-03-21T06:12:00.594Z,76
2023-03-21T06:13:00.712Z,76
2023-03-21T06:14:00.669Z,76
2023-03-21T06:15:05.307Z,76
2023-03-21T06:16:00.651Z,76
2023-03-21T06:17:00.526Z,76
2023-03-21T06:18:00.674Z,76
2023-03-21T06:19:00.528Z,76
2023-03-21T06:20:05.829Z,76
2023-03-21T06:21:00.579Z,76
2023-03-21T06:22:00.697Z,76
2023-03-21T06:23:00.577Z,76
2023-03-21T06:24:03.843Z,76
2023-03-21T06:25:06.215Z,76
2023-03-21T06:26:00.666Z,76
2023-03-21T06:27:02.839Z,76
2023-03-21T06:28:00.682Z,76
2023-03-21T06:29:00.651Z,76
2023-03-21T06:30:06.622Z,76
2023-03-21T06:31:00.815Z,76
2023-03-21T06:32:00.720Z,76
2023-03-21T06:33:00.633Z,76
2023-03-21T06:34:00.708Z,76
2023-03-21T06:35:05.236Z,76
2023-03-21T06:36:00.839Z,76
2023-03-21T06:37:00.647Z,76
2023-03-21T06:38:00.726Z,76
2023-03-21T06:39:00.701Z,76
2023-03-21T06:40:05.318Z,76
2023-03-21T06:41:00.691Z,76
2023-03-21T06:42:00.793Z,76
2023-03-21T06:43:00.682Z,76
2023-03-21T06:44:00.836Z,75
2023-03-21T06:45:05.452Z,75
2023-03-21T06:46:00.769Z,75
2023-03-21T06:47:00.788Z,75
2023-03-21T06:48:00.847Z,75
2023-03-21T06:49:00.707Z,75
2023-03-21T06:50:05.498Z,75
2023-03-21T06:51:00.733Z,75
2023-03-21T06:52:00.798Z,75
2023-03-21T06:53:00.728Z,75
2023-03-21T06:54:00.858Z,76
2023-03-21T06:55:05.257Z,76
2023-03-21T06:56:00.908Z,76
2023-03-21T06:57:00.876Z,76
2023-03-21T06:58:00.837Z,76
2023-03-21T06:59:00.754Z,76
2023-03-21T07:00:06.964Z,76
2023-03-21T07:01:00.888Z,76
2023-03-21T07:02:00.981Z,76
2023-03-21T07:03:01.109Z,76
2023-03-21T07:04:00.859Z,76
2023-03-21T07:05:05.314Z,76
2023-03-21T07:06:00.924Z,76
2023-03-21T07:07:00.980Z,76
2023-03-21T07:08:00.946Z,76
2023-03-21T07:09:00.864Z,76
2023-03-21T07:10:06.318Z,76
2023-03-21T07:11:00.908Z,76
2023-03-21T07:12:00.989Z,76
2023-03-21T07:13:00.896Z,76
2023-03-21T07:14:00.976Z,76
2023-03-21T07:15:06.413Z,77
2023-03-21T07:16:01.084Z,77
2023-03-21T07:17:00.909Z,77
2023-03-21T07:18:01.042Z,77
2023-03-21T07:19:01.018Z,77
2023-03-21T07:20:05.746Z,77
2023-03-21T07:21:01.078Z,77
2023-03-21T07:22:01.039Z,77
2023-03-21T07:23:01.011Z,77
2023-03-21T07:24:01.068Z,77
2023-03-21T07:25:05.757Z,78
2023-03-21T07:26:01.055Z,78
2023-03-21T07:27:00.979Z,78
2023-03-21T07:28:01.071Z,78
2023-03-21T07:29:00.987Z,78
2023-03-21T07:30:06.463Z,78
2023-03-21T07:31:00.991Z,78
2023-03-21T07:32:01.156Z,78
2023-03-21T07:33:01.026Z,77
2023-03-21T07:34:01.143Z,77
2023-03-21T07:35:05.886Z,77
2023-03-21T07:36:01.270Z,77
2023-03-21T07:37:01.210Z,77
2023-03-21T07:38:01.128Z,77
2023-03-21T07:39:01.069Z,77
2023-03-21T07:40:05.864Z,77
2023-03-21T07:41:01.093Z,77
2023-03-21T07:42:01.189Z,77
2023-03-21T07:44:01.254Z,77
2023-03-21T07:45:05.631Z,78
2023-03-21T07:46:01.236Z,78
2023-03-21T07:47:01.111Z,78
2023-03-21T07:48:01.302Z,78
2023-03-21T07:49:01.115Z,78
2023-03-21T07:50:06.221Z,78
2023-03-21T07:51:01.137Z,77
2023-03-21T07:52:02.436Z,77
2023-03-21T07:53:01.116Z,76
2023-03-21T07:54:01.240Z,76
2023-03-21T07:55:04.658Z,76
2023-03-21T07:56:01.262Z,76
2023-03-21T07:57:01.152Z,76
2023-03-21T07:58:01.240Z,76
2023-03-21T07:59:01.156Z,76
2023-03-21T08:00:06.178Z,76
2023-03-21T08:01:01.344Z,76
2023-03-21T08:02:04.427Z,76
2023-03-21T08:03:01.307Z,76
2023-03-21T08:04:01.358Z,76
2023-03-21T08:05:04.768Z,76
2023-03-21T08:06:00.350Z,76
2023-03-21T08:07:00.224Z,76
2023-03-21T08:08:00.394Z,76
2023-03-21T08:09:00.258Z,76
2023-03-21T08:10:05.821Z,76
2023-03-21T08:11:00.322Z,77
2023-03-21T08:12:00.425Z,77
2023-03-21T08:13:00.263Z,78
2023-03-21T08:14:00.359Z,78
2023-03-21T08:15:03.895Z,78
2023-03-21T08:16:00.404Z,78
2023-03-21T08:17:00.318Z,78
2023-03-21T08:18:00.446Z,79
2023-03-21T08:19:00.458Z,79
2023-03-21T08:20:05.090Z,79
2023-03-21T08:21:00.426Z,79
2023-03-21T08:22:00.399Z,79
2023-03-21T08:23:00.328Z,80
2023-03-21T08:24:00.443Z,80
2023-03-21T08:25:03.990Z,80
2023-03-21T08:26:00.404Z,80
2023-03-21T08:27:00.352Z,80
2023-03-21T08:28:00.420Z,81
2023-03-21T08:29:00.345Z,81
2023-03-21T08:30:05.394Z,81
2023-03-21T08:31:00.403Z,81
2023-03-21T08:32:00.465Z,81
2023-03-21T08:33:01.575Z,81
2023-03-21T08:34:00.577Z,81
2023-03-21T08:35:05.036Z,81
2023-03-21T08:36:00.570Z,82
2023-03-21T08:37:00.407Z,82
2023-03-21T08:38:00.466Z,82
2023-03-21T08:39:00.424Z,82
2023-03-21T08:40:03.993Z,82
2023-03-21T08:41:00.515Z,82
2023-03-21T08:42:00.566Z,83
2023-03-21T08:43:00.424Z,83
2023-03-21T08:44:00.522Z,83
2023-03-21T08:45:03.758Z,83
2023-03-21T08:46:00.609Z,84
2023-03-21T08:47:00.438Z,84
2023-03-21T08:48:00.637Z,84
2023-03-21T08:49:00.450Z,84
2023-03-21T08:50:05.273Z,84
2023-03-21T08:51:00.486Z,84
2023-03-21T08:52:00.586Z,84
2023-03-21T08:53:00.501Z,84
2023-03-21T08:54:00.634Z,84
2023-03-21T08:55:04.111Z,84
2023-03-21T08:56:00.589Z,84
2023-03-21T08:57:00.634Z,84
2023-03-21T08:58:00.599Z,84
2023-03-21T08:59:00.521Z,84
2023-03-21T09:00:04.284Z,84
2023-03-21T09:01:00.601Z,84
2023-03-21T09:02:00.808Z,84
2023-03-21T09:03:00.584Z,85
2023-03-21T09:04:01.332Z,85
2023-03-21T09:05:04.667Z,85
2023-03-21T09:06:01.878Z,85
2023-03-21T09:07:00.618Z,85
2023-03-21T09:08:04.533Z,85
2023-03-21T09:09:00.621Z,85
2023-03-21T09:10:22.650Z,85
2023-03-21T09:11:00.640Z,85
2023-03-21T09:12:01.631Z,86
2023-03-21T09:13:00.640Z,86
2023-03-21T09:14:04.562Z,86
2023-03-21T09:15:05.116Z,86
2023-03-21T09:16:00.871Z,86
2023-03-21T09:17:00.773Z,86
2023-03-21T09:18:00.769Z,86
2023-03-21T09:19:00.698Z,86
2023-03-21T09:20:04.373Z,86
2023-03-21T09:21:00.685Z,86
2023-03-21T09:22:00.824Z,86
2023-03-21T09:23:00.677Z,86
2023-03-21T09:24:00.803Z,86
2023-03-21T09:25:03.876Z,86
2023-03-21T09:26:00.799Z,86
2023-03-21T09:27:00.721Z,86
2023-03-21T09:28:00.835Z,86
2023-03-21T09:29:00.737Z,86
2023-03-21T09:30:05.573Z,86
2023-03-21T09:31:00.768Z,86
2023-03-21T09:32:00.820Z,86
2023-03-21T09:33:00.753Z,86
2023-03-21T09:34:00.852Z,86
2023-03-21T09:35:04.040Z,86
2023-03-21T09:36:00.982Z,86
2023-03-21T09:37:00.742Z,86
2023-03-21T09:38:00.825Z,86
2023-03-21T09:39:00.769Z,86
2023-03-21T09:40:04.476Z,86
2023-03-21T09:41:00.760Z,86
2023-03-21T09:42:00.889Z,86
2023-03-21T09:43:00.789Z,86
2023-03-21T09:44:00.889Z,86
2023-03-21T09:45:05.417Z,86
2023-03-21T09:46:00.886Z,86
2023-03-21T09:47:00.863Z,86
2023-03-21T09:48:00.907Z,87
2023-03-21T09:49:00.819Z,87
2023-03-21T09:50:14.183Z,87
2023-03-21T09:51:00.864Z,87
2023-03-21T09:52:00.909Z,87
2023-03-21T09:53:00.843Z,87
2023-03-21T09:54:00.941Z,87
2023-03-21T09:55:04.033Z,87
2023-03-21T09:56:00.951Z,87
2023-03-21T09:57:00.916Z,87
2023-03-21T09:58:01.206Z,87
2023-03-21T09:59:00.868Z,87
2023-03-21T10:00:06.169Z,87
2023-03-21T10:01:00.921Z,87
2023-03-21T10:02:00.994Z,87
2023-03-21T10:03:00.971Z,87
2023-03-21T10:04:01.302Z,87
2023-03-21T10:05:04.145Z,87
2023-03-21T10:06:01.049Z,87
2023-03-21T10:07:00.985Z,87
2023-03-21T10:08:01.305Z,87
2023-03-21T10:09:01.030Z,87
2023-03-21T10:10:04.723Z,87
2023-03-21T10:11:00.974Z,87
2023-03-21T10:12:01.122Z,87
2023-03-21T10:13:00.974Z,87
2023-03-21T10:14:01.088Z,87
2023-03-21T10:15:04.305Z,88
2023-03-21T10:16:01.178Z,88
2023-03-21T10:17:01.008Z,88
2023-03-21T10:18:01.137Z,88
2023-03-21T10:19:01.037Z,88
2023-03-21T10:20:04.803Z,88
2023-03-21T10:21:01.059Z,88
2023-03-21T10:22:02.666Z,88
2023-03-21T10:23:01.058Z,88
2023-03-21T10:24:01.303Z,88
2023-03-21T10:25:04.078Z,88
2023-03-21T10:26:01.176Z,88
2023-03-21T10:27:01.074Z,88
2023-03-21T10:28:01.157Z,88
2023-03-21T10:29:01.092Z,88
2023-03-21T10:30:05.091Z,88
2023-03-21T10:31:01.086Z,88
2023-03-21T10:32:01.291Z,88
2023-03-21T10:33:01.187Z,88
2023-03-21T10:34:01.229Z,88
2023-03-21T10:35:04.207Z,88
2023-03-21T10:36:01.226Z,88
2023-03-21T10:37:01.127Z,88
2023-03-21T10:38:01.218Z,88
2023-03-21T10:39:01.142Z,88
2023-03-21T10:40:05.006Z,88
2023-03-21T10:41:01.131Z,88
2023-03-21T10:42:01.224Z,88
2023-03-21T10:43:01.161Z,88
2023-03-21T10:44:01.296Z,88
2023-03-21T10:45:04.420Z,88
2023-03-21T10:46:01.415Z,88
2023-03-21T10:47:01.365Z,88
2023-03-21T10:48:01.428Z,88
2023-03-21T10:49:01.241Z,88
2023-03-21T10:50:08.966Z,88
2023-03-21T10:51:00.223Z,88
2023-03-21T10:52:00.268Z,88
2023-03-21T10:53:00.204Z,87
2023-03-21T10:54:00.292Z,87
2023-03-21T10:55:05.417Z,87
2023-03-21T10:56:00.340Z,87
2023-03-21T10:57:00.259Z,87
2023-03-21T10:58:00.362Z,87
2023-03-21T10:59:00.247Z,87
2023-03-21T11:00:03.813Z,87
2023-03-21T11:01:00.357Z,87
2023-03-21T11:02:00.394Z,87
2023-03-21T11:03:00.304Z,87
2023-03-21T11:04:00.387Z,87
2023-03-21T11:05:03.646Z,87
2023-03-21T11:06:00.396Z,87
2023-03-21T11:07:00.364Z,87
2023-03-21T11:08:00.436Z,87
2023-03-21T11:09:00.321Z,87
2023-03-21T11:10:05.220Z,87
2023-03-21T11:11:00.342Z,87
2023-03-21T11:12:00.442Z,87
2023-03-21T11:13:00.369Z,87
2023-03-21T11:14:00.434Z,87
2023-03-21T11:15:03.614Z,87
2023-03-21T11:16:00.461Z,87
2023-03-21T11:17:00.445Z,87
2023-03-21T11:18:00.480Z,87
2023-03-21T11:19:00.416Z,87
2023-03-21T11:20:03.900Z,87
2023-03-21T11:21:00.432Z,87
2023-03-21T11:22:00.491Z,87
2023-03-21T11:23:00.395Z,87
2023-03-21T11:24:00.509Z,87
2023-03-21T11:25:03.528Z,87
2023-03-21T11:26:00.597Z,87
2023-03-21T11:27:00.437Z,87
2023-03-21T11:28:00.497Z,87
2023-03-21T11:29:00.432Z,87
2023-03-21T11:30:04.031Z,86
2023-03-21T11:31:00.567Z,86
2023-03-21T11:32:00.531Z,86
2023-03-21T11:33:00.479Z,86
2023-03-21T11:34:00.534Z,86
2023-03-21T11:35:03.536Z,86
2023-03-21T11:36:00.628Z,86
2023-03-21T11:37:00.514Z,86
2023-03-21T11:38:00.572Z,86
2023-03-21T11:39:00.526Z,86
2023-03-21T11:40:11.170Z,86
2023-03-21T11:41:00.514Z,86
2023-03-21T11:42:00.628Z,86
2023-03-21T11:43:00.560Z,85
2023-03-21T11:44:00.744Z,85
2023-03-21T11:45:03.612Z,85
2023-03-21T11:46:00.756Z,85
2023-03-21T11:47:00.574Z,85
2023-03-21T11:48:00.764Z,84
2023-03-21T11:49:00.720Z,84
2023-03-21T11:50:05.619Z,84
2023-03-21T11:51:00.722Z,84
2023-03-21T11:52:00.691Z,84
2023-03-21T11:53:00.608Z,84
2023-03-21T11:54:00.699Z,84
2023-03-21T11:55:07.050Z,84
2023-03-21T11:56:00.698Z,85
2023-03-21T11:57:00.690Z,85
2023-03-21T11:58:13.541Z,85
2023-03-21T11:59:00.830Z,85
2023-03-21T12:00:05.539Z,85
2023-03-21T12:01:00.690Z,85
2023-03-21T12:02:00.839Z,85
2023-03-21T12:03:00.737Z,85
2023-03-21T12:04:00.781Z,85
2023-03-21T12:05:03.863Z,85
2023-03-21T12:06:00.767Z,85
2023-03-21T12:07:00.723Z,85
2023-03-21T12:08:00.790Z,85
2023-03-21T12:09:00.691Z,86
2023-03-21T12:10:04.380Z,86
2023-03-21T12:11:00.735Z,86
2023-03-21T12:12:00.800Z,86
2023-03-21T12:13:00.737Z,86
2023-03-21T12:14:00.817Z,86
2023-03-21T12:15:03.881Z,86
2023-03-21T12:16:00.834Z,86
2023-03-21T12:17:00.749Z,86
2023-03-21T12:18:00.919Z,86
2023-03-21T12:19:00.801Z,86
2023-03-21T12:20:04.239Z,86
2023-03-21T12:21:00.764Z,86
2023-03-21T12:22:00.852Z,86
2023-03-21T12:23:00.817Z,86
2023-03-21T12:24:00.959Z,86
2023-03-21T12:25:03.812Z,86
2023-03-21T12:26:00.892Z,86
2023-03-21T12:27:00.806Z,86
2023-03-21T12:28:03.069Z,86
2023-03-21T12:29:00.825Z,86
2023-03-21T12:30:04.632Z,86
2023-03-21T12:31:00.856Z,86
2023-03-21T12:32:01.111Z,86
2023-03-21T12:33:00.867Z,86
2023-03-21T12:34:00.918Z,86
2023-03-21T12:35:04.179Z,86
2023-03-21T12:36:00.989Z,86
2023-03-21T12:37:00.849Z,86
2023-03-21T12:38:00.921Z,86
2023-03-21T12:39:00.867Z,86
2023-03-21T12:40:04.492Z,86
2023-03-21T12:41:00.870Z,86
2023-03-21T12:42:01.059Z,86
2023-03-21T12:43:00.878Z,86
2023-03-21T12:44:00.974Z,86
2023-03-21T12:45:08.933Z,86
2023-03-21T12:46:01.056Z,86
2023-03-21T12:47:00.985Z,86
2023-03-21T12:48:01.087Z,86
2023-03-21T12:49:00.918Z,86
2023-03-21T12:50:04.277Z,86
2023-03-21T12:51:00.970Z,86
2023-03-21T12:52:01.022Z,86
2023-03-21T12:53:00.963Z,86
2023-03-21T12:54:01.098Z,85
2023-03-21T12:55:04.228Z,85
2023-03-21T12:56:01.079Z,85
2023-03-21T12:57:00.986Z,85
2023-03-21T12:58:01.041Z,85
2023-03-21T12:59:00.982Z,85
2023-03-21T13:00:04.999Z,85
2023-03-21T13:01:01.032Z,85
2023-03-21T13:02:01.070Z,85
2023-03-21T13:03:01.006Z,85
2023-03-21T13:04:01.132Z,86
2023-03-21T13:05:04.182Z,86
2023-03-21T13:06:01.124Z,86
2023-03-21T13:07:01.030Z,86
2023-03-21T13:08:01.099Z,86
2023-03-21T13:09:01.036Z,86
2023-03-21T13:10:05.814Z,86
2023-03-21T13:11:01.377Z,86
2023-03-21T13:12:01.590Z,86
2023-03-21T13:13:01.052Z,86
2023-03-21T13:14:01.147Z,86
2023-03-21T13:15:05.988Z,86
2023-03-21T13:16:01.139Z,86
2023-03-21T13:17:01.477Z,86
2023-03-21T13:18:01.244Z,86
2023-03-21T13:19:01.164Z,86
2023-03-21T13:20:06.023Z,86
2023-03-21T13:21:01.169Z,86
2023-03-21T13:22:01.299Z,86
2023-03-21T13:23:01.161Z,86
2023-03-21T13:24:01.415Z,86
2023-03-21T13:25:04.479Z,86
2023-03-21T13:26:01.239Z,86
2023-03-21T13:27:01.284Z,86
2023-03-21T13:28:01.249Z,86
2023-03-21T13:29:01.167Z,86
2023-03-21T13:30:06.355Z,86
2023-03-21T13:31:01.020Z,86
2023-03-21T13:32:01.138Z,86
2023-03-21T13:33:01.039Z,86
2023-03-21T13:34:01.236Z,86
2023-03-21T13:35:04.335Z,86
2023-03-21T13:36:01.319Z,86
2023-03-21T13:37:01.096Z,86
2023-03-21T13:38:00.928Z,86
2023-03-21T13:39:00.836Z,86
2023-03-21T13:40:05.843Z,86
2023-03-21T13:41:00.793Z,86
2023-03-21T13:42:00.886Z,86
2023-03-21T13:43:00.876Z,86
2023-03-21T13:44:00.996Z,86
2023-03-21T13:45:04.516Z,86
2023-03-21T13:46:00.948Z,86
2023-03-21T13:47:00.905Z,86
2023-03-21T13:48:01.009Z,86
2023-03-21T13:49:00.819Z,86
2023-03-21T13:50:05.843Z,86
2023-03-21T13:51:00.931Z,86
2023-03-21T13:52:00.936Z,86
2023-03-21T13:53:00.849Z,86
2023-03-21T13:54:01.016Z,86
2023-03-21T13:55:03.956Z,86
2023-03-21T13:56:00.578Z,86
2023-03-21T13:57:01.386Z,85
2023-03-21T13:58:00.663Z,85
2023-03-21T13:59:00.253Z,85
2023-03-21T14:00:06.344Z,85
2023-03-21T14:01:00.358Z,85
2023-03-21T14:02:00.330Z,85
2023-03-21T14:03:00.369Z,85
2023-03-21T14:04:00.388Z,85
2023-03-21T14:05:05.278Z,85
2023-03-21T14:06:00.719Z,85
2023-03-21T14:07:00.366Z,85
2023-03-21T14:08:12.392Z,85
2023-03-21T14:09:00.338Z,85
2023-03-21T14:10:05.153Z,85
2023-03-21T14:11:00.990Z,85
2023-03-21T14:12:06.993Z,85
2023-03-21T14:13:00.995Z,85
2023-03-21T14:14:01.136Z,85
2023-03-21T14:15:15.858Z,85
2023-03-21T14:16:01.985Z,85
2023-03-21T14:17:01.289Z,85
2023-03-21T14:18:06.427Z,85
2023-03-21T14:19:00.518Z,84
2023-03-21T14:20:07.398Z,84
2023-03-21T14:21:01.297Z,84
2023-03-21T14:22:00.821Z,84
2023-03-21T14:23:00.911Z,84
2023-03-21T14:24:00.958Z,84